Time,TemperatureF,DewpointF,PressureIn,WindDirection,WindDirectionDegrees,WindSpeedMPH,WindSpeedGustMPH,Humidity,HourlyPrecipIn,Conditions,Clouds,dailyrainin,SoftwareType,DateUTC
2013-03-04 00:00:00,18.4,13.7,30.24,NW,315,2.9,3.4,82,0.00,,,0.00,WUHU216HW,2013-03-04 05:00:00,
2013-03-04 00:05:00,18.4,13.7,30.24,NNW,338,1.8,3.4,82,0.00,,,0.00,WUHU216HW,2013-03-04 05:05:00,
2013-03-04 00:10:00,18.4,13.7,30.24,NNW,338,2.7,3.4,82,0.00,,,0.00,WUHU216HW,2013-03-04 05:10:00,
2013-03-04 00:15:00,18.4,13.7,30.24,NNW,338,3.4,3.4,82,0.00,,,0.00,WUHU216HW,2013-03-04 05:15:00,
2013-03-04 00:20:00,18.2,13.2,30.24,NW,315,3.8,3.8,81,0.00,,,0.00,WUHU216HW,2013-03-04 05:20:00,
2013-03-04 00:25:00,18.2,13.2,30.24,NW,315,2.2,3.8,81,0.00,,,0.00,WUHU216HW,2013-03-04 05:25:00,
2013-03-04 00:30:00,17.8,12.9,30.25,NW,315,2.5,2.9,81,0.00,,,0.00,WUHU216HW,2013-03-04 05:30:00,
2013-03-04 00:35:00,17.6,12.7,30.24,NW,315,2.2,2.9,81,0.00,,,0.00,WUHU216HW,2013-03-04 05:35:00,
2013-03-04 00:40:00,17.8,12.9,30.25,NW,315,2.2,2.7,81,0.00,,,0.00,WUHU216HW,2013-03-04 05:40:00,
2013-03-04 00:45:00,17.6,12.7,30.25,NW,315,2.2,2.5,81,0.00,,,0.00,WUHU216HW,2013-03-04 05:45:00,
2013-03-04 00:50:00,17.6,12.7,30.24,NW,315,1.8,2.2,81,0.00,,,0.00,WUHU216HW,2013-03-04 05:50:00,
2013-03-04 00:55:00,17.3,12.3,30.24,NW,315,2.2,2.2,81,0.00,,,0.00,WUHU216HW,2013-03-04 05:55:00,
2013-03-04 01:00:00,16.9,12.1,30.25,NW,315,2.2,2.5,81,0.00,,,0.00,WUHU216HW,2013-03-04 06:00:00,
2013-03-04 01:05:00,16.7,12.2,30.25,WNW,293,2.0,2.5,82,0.00,,,0.00,WUHU216HW,2013-03-04 06:05:00,
2013-03-04 01:10:00,16.7,12.2,30.25,NW,315,1.8,2.5,82,0.00,,,0.00,WUHU216HW,2013-03-04 06:10:00,
2013-03-04 01:15:00,16.6,12.0,30.25,WNW,293,2.0,2.5,82,0.00,,,0.00,WUHU216HW,2013-03-04 06:15:00,
2013-03-04 01:20:00,16.6,12.0,30.24,NW,315,1.1,2.0,82,0.00,,,0.00,WUHU216HW,2013-03-04 06:20:00,
2013-03-04 01:25:00,16.6,12.3,30.24,NW,315,0.9,2.0,83,0.00,,,0.00,WUHU216HW,2013-03-04 06:25:00,
2013-03-04 01:30:00,16.7,12.2,30.24,NNW,338,0.0,1.1,82,0.00,,,0.00,WUHU216HW,2013-03-04 06:30:00,
2013-03-04 01:35:00,16.6,12.0,30.24,North,0,1.1,1.1,82,0.00,,,0.00,WUHU216HW,2013-03-04 06:35:00,
2013-03-04 01:40:00,16.2,11.6,30.24,North,0,2.0,2.0,82,0.00,,,0.00,WUHU216HW,2013-03-04 06:40:00,
2013-03-04 01:45:00,16.2,11.6,30.24,North,0,2.0,2.2,82,0.00,,,0.00,WUHU216HW,2013-03-04 06:45:00,
2013-03-04 01:50:00,15.8,11.5,30.24,North,0,2.0,2.2,83,0.00,,,0.00,WUHU216HW,2013-03-04 06:50:00,
2013-03-04 01:55:00,15.8,11.5,30.24,North,0,1.8,2.2,83,0.00,,,0.00,WUHU216HW,2013-03-04 06:55:00,
2013-03-04 02:00:00,15.7,11.3,30.24,North,0,0.0,2.2,83,0.00,,,0.00,WUHU216HW,2013-03-04 07:00:00,
2013-03-04 02:05:00,15.8,11.5,30.24,North,0,0.0,1.8,83,0.00,,,0.00,WUHU216HW,2013-03-04 07:05:00,
2013-03-04 02:10:00,15.8,11.5,30.24,North,0,0.0,0.7,83,0.00,,,0.00,WUHU216HW,2013-03-04 07:10:00,
2013-03-04 02:15:00,15.8,11.5,30.24,North,0,0.0,0.0,83,0.00,,,0.00,WUHU216HW,2013-03-04 07:15:00,
2013-03-04 02:20:00,15.8,11.5,30.24,NNW,338,0.9,1.1,83,0.00,,,0.00,WUHU216HW,2013-03-04 07:20:00,
2013-03-04 02:25:00,15.7,11.3,30.24,NNW,338,0.0,1.1,83,0.00,,,0.00,WUHU216HW,2013-03-04 07:25:00,
2013-03-04 02:30:00,15.1,10.9,30.24,NNW,338,0.7,0.9,83,0.00,,,0.00,WUHU216HW,2013-03-04 07:30:00,
2013-03-04 02:35:00,14.8,10.5,30.24,NW,315,0.7,0.9,83,0.00,,,0.00,WUHU216HW,2013-03-04 07:35:00,
2013-03-04 02:40:00,14.8,10.5,30.24,NNW,338,0.0,0.9,83,0.00,,,0.00,WUHU216HW,2013-03-04 07:40:00,
2013-03-04 02:45:00,14.4,10.2,30.24,NNW,338,0.0,0.7,83,0.00,,,0.00,WUHU216HW,2013-03-04 07:45:00,
2013-03-04 02:50:00,14.2,10.0,30.24,NNW,338,0.4,0.7,83,0.00,,,0.00,WUHU216HW,2013-03-04 07:50:00,
2013-03-04 02:55:00,14.2,10.0,30.24,NNW,338,0.0,0.4,83,0.00,,,0.00,WUHU216HW,2013-03-04 07:55:00,
2013-03-04 03:00:00,14.0,10.1,30.24,NNW,338,0.0,0.4,84,0.00,,,0.00,WUHU216HW,2013-03-04 08:00:00,
2013-03-04 03:05:00,13.9,9.9,30.24,NNW,338,0.0,0.4,84,0.00,,,0.00,WUHU216HW,2013-03-04 08:05:00,
2013-03-04 03:10:00,13.5,9.5,30.24,NNW,338,0.4,0.4,84,0.00,,,0.00,WUHU216HW,2013-03-04 08:10:00,
2013-03-04 03:15:00,13.3,9.4,30.24,West,270,1.3,1.3,84,0.00,,,0.00,WUHU216HW,2013-03-04 08:15:00,
2013-03-04 03:20:00,13.0,8.7,30.24,West,270,1.1,1.6,83,0.00,,,0.00,WUHU216HW,2013-03-04 08:20:00,
2013-03-04 03:25:00,12.6,8.4,30.24,West,270,0.9,1.6,83,0.00,,,0.00,WUHU216HW,2013-03-04 08:25:00,
2013-03-04 03:30:00,13.0,9.0,30.24,West,270,2.0,2.0,84,0.00,,,0.00,WUHU216HW,2013-03-04 08:30:00,
2013-03-04 03:35:00,13.1,9.5,30.24,West,270,1.3,2.0,85,0.00,,,0.00,WUHU216HW,2013-03-04 08:35:00,
2013-03-04 03:40:00,13.5,9.8,30.24,West,270,1.1,2.0,85,0.00,,,0.00,WUHU216HW,2013-03-04 08:40:00,
2013-03-04 03:45:00,13.5,9.8,30.25,WSW,248,1.3,1.3,85,0.00,,,0.00,WUHU216HW,2013-03-04 08:45:00,
2013-03-04 03:50:00,13.3,9.6,30.25,WSW,248,1.6,2.0,85,0.00,,,0.00,WUHU216HW,2013-03-04 08:50:00,
2013-03-04 03:55:00,13.0,9.0,30.25,SSW,203,1.8,2.0,84,0.00,,,0.00,WUHU216HW,2013-03-04 08:55:00,
2013-03-04 04:00:00,12.6,8.6,30.25,SSW,203,1.1,1.8,84,0.00,,,0.00,WUHU216HW,2013-03-04 09:00:00,
2013-03-04 04:05:00,12.2,8.3,30.25,SSW,203,1.1,1.6,84,0.00,,,0.00,WUHU216HW,2013-03-04 09:05:00,
2013-03-04 04:10:00,11.9,7.9,30.25,SW,225,0.4,1.6,84,0.00,,,0.00,WUHU216HW,2013-03-04 09:10:00,
2013-03-04 04:15:00,11.9,7.9,30.25,SW,225,0.0,1.3,84,0.00,,,0.00,WUHU216HW,2013-03-04 09:15:00,
2013-03-04 04:20:00,11.9,7.9,30.25,WSW,248,0.4,0.7,84,0.00,,,0.00,WUHU216HW,2013-03-04 09:20:00,
2013-03-04 04:25:00,11.7,7.7,30.26,SW,225,0.4,0.4,84,0.00,,,0.00,WUHU216HW,2013-03-04 09:25:00,
2013-03-04 04:30:00,11.5,7.6,30.25,SW,225,0.0,0.4,84,0.00,,,0.00,WUHU216HW,2013-03-04 09:30:00,
2013-03-04 04:37:00,11.3,7.4,30.26,SSW,203,1.3,1.6,84,0.00,,,0.00,WUHU216HW,2013-03-04 09:37:00,
2013-03-04 04:42:00,11.2,7.2,30.25,SSE,158,1.1,1.6,84,0.00,,,0.00,WUHU216HW,2013-03-04 09:42:00,
2013-03-04 04:47:00,10.8,6.8,30.26,South,180,1.1,1.3,84,0.00,,,0.00,WUHU216HW,2013-03-04 09:47:00,
2013-03-04 04:52:00,10.8,6.8,30.26,SSE,158,1.1,1.1,84,0.00,,,0.00,WUHU216HW,2013-03-04 09:52:00,
2013-03-04 04:57:00,10.8,7.1,30.26,SSE,158,0.9,1.1,85,0.00,,,0.00,WUHU216HW,2013-03-04 09:57:00,
2013-03-04 05:02:00,11.0,7.3,30.26,SE,135,0.4,1.1,85,0.00,,,0.00,WUHU216HW,2013-03-04 10:02:00,
2013-03-04 05:07:00,10.8,7.1,30.26,SE,135,1.1,1.1,85,0.00,,,0.00,WUHU216HW,2013-03-04 10:07:00,
2013-03-04 05:12:00,10.4,6.8,30.26,SE,135,1.6,1.6,85,0.00,,,0.00,WUHU216HW,2013-03-04 10:12:00,
2013-03-04 05:17:00,10.4,6.8,30.26,SE,135,1.8,1.8,85,0.00,,,0.00,WUHU216HW,2013-03-04 10:17:00,
2013-03-04 05:22:00,10.4,6.8,30.26,ESE,113,1.8,2.0,85,0.00,,,0.00,WUHU216HW,2013-03-04 10:22:00,
2013-03-04 05:27:00,10.4,6.8,30.25,ESE,113,1.1,2.0,85,0.00,,,0.00,WUHU216HW,2013-03-04 10:27:00,
2013-03-04 05:32:00,10.3,6.6,30.26,ESE,113,0.7,1.6,85,0.00,,,0.00,WUHU216HW,2013-03-04 10:32:00,
2013-03-04 05:37:00,10.1,6.4,30.26,SE,135,1.1,1.1,85,0.00,,,0.00,WUHU216HW,2013-03-04 10:37:00,
2013-03-04 05:42:00,10.1,6.4,30.26,SE,135,0.7,1.1,85,0.00,,,0.00,WUHU216HW,2013-03-04 10:42:00,
2013-03-04 05:47:00,9.9,6.2,30.26,ESE,113,1.1,1.6,85,0.00,,,0.00,WUHU216HW,2013-03-04 10:47:00,
2013-03-04 05:52:00,9.7,6.0,30.26,SE,135,0.7,1.6,85,0.00,,,0.00,WUHU216HW,2013-03-04 10:52:00,
2013-03-04 05:57:00,9.7,6.0,30.27,SSW,203,0.7,1.3,85,0.00,,,0.00,WUHU216HW,2013-03-04 10:57:00,
2013-03-04 06:02:00,9.5,5.9,30.27,SSE,158,0.7,0.9,85,0.00,,,0.00,WUHU216HW,2013-03-04 11:02:00,
2013-03-04 06:07:00,9.5,5.9,30.27,SSE,158,0.2,0.9,85,0.00,,,0.00,WUHU216HW,2013-03-04 11:07:00,
2013-03-04 06:12:00,9.4,5.8,30.27,SSE,158,0.0,0.4,85,0.00,,,0.00,WUHU216HW,2013-03-04 11:12:00,
2013-03-04 06:17:00,9.4,5.8,30.27,SSE,158,0.0,0.0,85,0.00,,,0.00,WUHU216HW,2013-03-04 11:17:00,
2013-03-04 06:44:00,9.4,5.9,30.28,ENE,68,0.7,0.7,86,0.00,,,0.00,WUHU216HW,2013-03-04 11:44:00,
2013-03-04 06:49:00,9.4,5.9,30.28,ENE,68,0.4,0.9,86,0.00,,,0.00,WUHU216HW,2013-03-04 11:49:00,
2013-03-04 06:54:00,9.5,6.1,30.28,ENE,68,0.0,0.9,86,0.00,,,0.00,WUHU216HW,2013-03-04 11:54:00,
2013-03-04 06:59:00,9.4,5.9,30.28,ENE,68,0.0,0.4,86,0.00,,,0.00,WUHU216HW,2013-03-04 11:59:00,
2013-03-04 07:04:00,9.5,6.1,30.28,ENE,68,0.7,0.7,86,0.00,,,0.00,WUHU216HW,2013-03-04 12:04:00,
2013-03-04 07:09:00,9.5,6.1,30.28,ENE,68,0.4,0.9,86,0.00,,,0.00,WUHU216HW,2013-03-04 12:09:00,
2013-03-04 07:14:00,9.5,6.1,30.28,ENE,68,0.9,0.9,86,0.00,,,0.00,WUHU216HW,2013-03-04 12:14:00,
2013-03-04 07:19:00,9.5,6.1,30.29,ENE,68,0.0,0.9,86,0.00,,,0.00,WUHU216HW,2013-03-04 12:19:00,
2013-03-04 07:24:00,9.5,6.1,30.28,ENE,68,0.0,0.4,86,0.00,,,0.00,WUHU216HW,2013-03-04 12:24:00,
2013-03-04 07:29:00,9.5,6.1,30.28,ENE,68,1.3,1.3,86,0.00,,,0.00,WUHU216HW,2013-03-04 12:29:00,
2013-03-04 07:34:00,9.7,6.3,30.28,ENE,68,1.1,1.6,86,0.00,,,0.00,WUHU216HW,2013-03-04 12:34:00,
2013-03-04 07:39:00,9.9,6.5,30.28,ENE,68,1.1,1.8,86,0.00,,,0.00,WUHU216HW,2013-03-04 12:39:00,
2013-03-04 07:44:00,10.3,6.8,30.29,NE,45,1.8,1.8,86,0.00,,,0.00,WUHU216HW,2013-03-04 12:44:00,
2013-03-04 07:49:00,10.4,7.0,30.29,NE,45,0.0,1.8,86,0.00,,,0.00,WUHU216HW,2013-03-04 12:49:00,
2013-03-04 07:54:00,10.4,7.0,30.29,NE,45,0.4,1.6,86,0.00,,,0.00,WUHU216HW,2013-03-04 12:54:00,
2013-03-04 08:05:00,11.9,8.5,30.29,NE,45,0.0,0.0,86,0.00,,,0.00,WUHU216HW,2013-03-04 13:05:00,
2013-03-04 08:10:00,12.6,9.2,30.29,NE,45,0.4,0.7,86,0.00,,,0.00,WUHU216HW,2013-03-04 13:10:00,
2013-03-04 08:15:00,13.1,9.7,30.29,NE,45,0.4,1.3,86,0.00,,,0.00,WUHU216HW,2013-03-04 13:15:00,
2013-03-04 08:20:00,13.5,10.1,30.29,NE,45,0.0,1.3,86,0.00,,,0.00,WUHU216HW,2013-03-04 13:20:00,
2013-03-04 08:25:00,14.2,10.8,30.29,NE,45,0.0,0.4,86,0.00,,,0.00,WUHU216HW,2013-03-04 13:25:00,
2013-03-04 08:30:00,15.1,11.6,30.29,NE,45,1.1,1.1,86,0.00,,,0.00,WUHU216HW,2013-03-04 13:30:00,
2013-03-04 08:35:00,15.5,12.0,30.29,ENE,68,1.3,1.3,86,0.00,,,0.00,WUHU216HW,2013-03-04 13:35:00,
2013-03-04 08:40:00,15.7,12.2,30.29,ENE,68,1.3,1.8,86,0.00,,,0.00,WUHU216HW,2013-03-04 13:40:00,
2013-03-04 08:45:00,16.2,12.9,30.29,ENE,68,1.1,1.8,87,0.00,,,0.00,WUHU216HW,2013-03-04 13:45:00,
2013-03-04 08:50:00,16.9,13.6,30.29,ENE,68,1.6,2.2,87,0.00,,,0.00,WUHU216HW,2013-03-04 13:50:00,
2013-03-04 08:55:00,17.1,13.8,30.29,NE,45,2.2,2.5,87,0.00,,,0.00,WUHU216HW,2013-03-04 13:55:00,
2013-03-04 09:00:00,17.6,14.3,30.28,ENE,68,3.1,3.1,87,0.00,,,0.00,WUHU216HW,2013-03-04 14:00:00,
2013-03-04 09:05:00,18.4,14.8,30.29,ENE,68,3.1,3.4,86,0.00,,,0.00,WUHU216HW,2013-03-04 14:05:00,
2013-03-04 09:10:00,18.7,14.6,30.28,NE,45,5.8,5.8,84,0.00,,,0.00,WUHU216HW,2013-03-04 14:10:00,
2013-03-04 09:15:00,19.1,14.7,30.29,ENE,68,4.5,5.8,83,0.00,,,0.00,WUHU216HW,2013-03-04 14:15:00,
2013-03-04 09:20:00,19.4,15.0,30.29,ENE,68,4.0,4.7,83,0.00,,,0.00,WUHU216HW,2013-03-04 14:20:00,
2013-03-04 09:25:00,19.8,15.1,30.29,NE,45,4.5,5.6,82,0.00,,,0.00,WUHU216HW,2013-03-04 14:25:00,
2013-03-04 09:30:00,20.2,15.5,30.29,ENE,68,4.0,5.6,82,0.00,,,0.00,WUHU216HW,2013-03-04 14:30:00,
2013-03-04 09:35:00,20.3,15.1,30.29,NE,45,5.6,5.6,80,0.00,,,0.00,WUHU216HW,2013-03-04 14:35:00,
2013-03-04 09:40:00,20.5,15.3,30.29,NE,45,3.8,5.6,80,0.00,,,0.00,WUHU216HW,2013-03-04 14:40:00,
2013-03-04 09:45:00,20.9,15.9,30.29,ESE,113,1.1,5.1,81,0.00,,,0.00,WUHU216HW,2013-03-04 14:45:00,
2013-03-04 09:50:00,21.6,16.4,30.29,ENE,68,2.2,3.1,80,0.00,,,0.00,WUHU216HW,2013-03-04 14:50:00,
2013-03-04 09:55:00,21.8,15.9,30.29,ENE,68,2.2,2.9,78,0.00,,,0.00,WUHU216HW,2013-03-04 14:55:00,
2013-03-04 10:00:00,22.3,16.8,30.29,East,90,2.0,2.9,79,0.00,,,0.00,WUHU216HW,2013-03-04 15:00:00,
2013-03-04 10:05:00,23.0,17.2,30.29,NE,45,2.5,2.7,78,0.00,,,0.00,WUHU216HW,2013-03-04 15:05:00,
2013-03-04 10:10:00,23.2,17.4,30.28,East,90,0.2,2.5,78,0.00,,,0.00,WUHU216HW,2013-03-04 15:10:00,
2013-03-04 10:15:00,23.9,18.4,30.28,East,90,1.8,2.5,79,0.00,,,0.00,WUHU216HW,2013-03-04 15:15:00,
2013-03-04 10:20:00,24.5,18.6,30.28,NE,45,1.3,2.5,78,0.00,,,0.00,WUHU216HW,2013-03-04 15:20:00,
2013-03-04 10:25:00,24.7,18.5,30.28,SE,135,0.4,1.3,77,0.00,,,0.00,WUHU216HW,2013-03-04 15:25:00,
2013-03-04 10:30:00,24.5,17.4,30.28,NNE,23,2.9,2.9,74,0.00,,,0.00,WUHU216HW,2013-03-04 15:30:00,
2013-03-04 10:35:00,24.8,18.0,30.28,North,0,2.0,2.9,75,0.00,,,0.00,WUHU216HW,2013-03-04 15:35:00,
2013-03-04 10:40:00,24.8,17.0,30.28,NNE,23,3.6,3.6,72,0.00,,,0.00,WUHU216HW,2013-03-04 15:40:00,
2013-03-04 10:45:00,24.5,16.8,30.28,ENE,68,2.2,4.0,72,0.00,,,0.00,WUHU216HW,2013-03-04 15:45:00,
2013-03-04 10:50:00,24.7,17.2,30.28,NE,45,3.4,4.5,73,0.00,,,0.00,WUHU216HW,2013-03-04 15:50:00,
2013-03-04 10:55:00,24.8,17.0,30.28,NNE,23,2.5,4.5,72,0.00,,,0.00,WUHU216HW,2013-03-04 15:55:00,
2013-03-04 11:00:00,25.0,17.2,30.28,ENE,68,1.6,2.9,72,0.00,,,0.00,WUHU216HW,2013-03-04 16:00:00,
2013-03-04 11:05:00,25.4,17.6,30.28,NNE,23,2.9,3.6,72,0.00,,,0.00,WUHU216HW,2013-03-04 16:05:00,
2013-03-04 11:10:00,25.4,17.6,30.28,NNE,23,2.9,3.6,72,0.00,,,0.00,WUHU216HW,2013-03-04 16:10:00,
2013-03-04 11:40:00,28.3,20.4,30.28,NNW,338,0.0,1.1,72,0.00,,,0.00,WUHU216HW,2013-03-04 16:40:00,
2013-03-04 11:45:00,28.4,20.0,30.28,SE,135,0.0,1.1,70,0.00,,,0.00,WUHU216HW,2013-03-04 16:45:00,
2013-03-04 11:50:00,29.2,21.0,30.28,North,0,2.9,2.9,71,0.00,,,0.00,WUHU216HW,2013-03-04 16:50:00,
2013-03-04 11:55:00,29.0,20.8,30.28,NNW,338,1.1,2.9,71,0.00,,,0.00,WUHU216HW,2013-03-04 16:55:00,
2013-03-04 12:00:00,29.5,21.0,30.27,NNE,23,2.0,2.0,70,0.00,,,0.00,WUHU216HW,2013-03-04 17:00:00,
2013-03-04 12:05:00,29.5,19.5,30.27,North,0,4.5,5.1,66,0.00,,,0.00,WUHU216HW,2013-03-04 17:05:00,
2013-03-04 12:10:00,29.3,20.1,30.27,NW,315,0.2,5.1,68,0.00,,,0.00,WUHU216HW,2013-03-04 17:10:00,
2013-03-04 12:15:00,30.1,20.7,30.27,North,0,1.6,3.1,68,0.00,,,0.00,WUHU216HW,2013-03-04 17:15:00,
2013-03-04 12:20:00,29.9,19.8,30.27,NE,45,1.3,4.0,66,0.00,,,0.00,WUHU216HW,2013-03-04 17:20:00,
2013-03-04 12:25:00,29.7,19.7,30.27,NNE,23,2.5,5.4,66,0.00,,,0.00,WUHU216HW,2013-03-04 17:25:00,
2013-03-04 12:30:00,29.9,19.8,30.26,North,0,0.4,6.0,66,0.00,,,0.00,WUHU216HW,2013-03-04 17:30:00,
2013-03-04 12:35:00,29.9,19.8,30.27,North,0,4.7,6.0,66,0.00,,,0.00,WUHU216HW,2013-03-04 17:35:00,
2013-03-04 12:40:00,29.9,19.8,30.26,North,0,7.6,7.6,66,0.00,,,0.00,WUHU216HW,2013-03-04 17:40:00,
2013-03-04 12:45:00,29.7,19.7,30.27,North,0,6.3,7.6,66,0.00,,,0.00,WUHU216HW,2013-03-04 17:45:00,
2013-03-04 12:50:00,29.5,19.5,30.26,NNE,23,4.7,6.3,66,0.00,,,0.00,WUHU216HW,2013-03-04 17:50:00,
2013-03-04 12:55:00,29.5,19.2,30.26,North,0,7.2,7.2,65,0.00,,,0.00,WUHU216HW,2013-03-04 17:55:00,
2013-03-04 13:00:00,29.9,19.8,30.26,North,0,5.4,7.6,66,0.00,,,0.00,WUHU216HW,2013-03-04 18:00:00,
2013-03-04 13:05:00,30.6,19.8,30.26,NNE,23,5.1,7.6,64,0.00,,,0.00,WUHU216HW,2013-03-04 18:05:00,
2013-03-04 13:10:00,30.1,19.3,30.26,NE,45,4.9,5.1,64,0.00,,,0.00,WUHU216HW,2013-03-04 18:10:00,
2013-03-04 13:15:00,30.2,20.2,30.25,North,0,2.2,5.1,66,0.00,,,0.00,WUHU216HW,2013-03-04 18:15:00,
2013-03-04 13:20:00,30.6,20.2,30.25,North,0,7.4,7.4,65,0.00,,,0.00,WUHU216HW,2013-03-04 18:20:00,
2013-03-04 13:25:00,30.6,19.8,30.25,NNE,23,5.8,7.4,64,0.00,,,0.00,WUHU216HW,2013-03-04 18:25:00,
2013-03-04 13:30:00,29.9,18.7,30.25,NNE,23,5.4,6.0,63,0.00,,,0.00,WUHU216HW,2013-03-04 18:30:00,
2013-03-04 13:35:00,30.1,19.6,30.25,NNE,23,5.6,6.0,65,0.00,,,0.00,WUHU216HW,2013-03-04 18:35:00,
2013-03-04 13:40:00,30.1,19.3,30.25,NNE,23,6.9,7.6,64,0.00,,,0.00,WUHU216HW,2013-03-04 18:40:00,
2013-03-04 13:45:00,29.9,19.4,30.24,NE,45,4.0,7.6,65,0.00,,,0.00,WUHU216HW,2013-03-04 18:45:00,
2013-03-04 13:50:00,29.5,18.8,30.24,NNE,23,7.2,9.2,64,0.00,,,0.00,WUHU216HW,2013-03-04 18:50:00,
2013-03-04 13:55:00,29.9,19.8,30.24,NNE,23,3.6,9.2,66,0.00,,,0.00,WUHU216HW,2013-03-04 18:55:00,
2013-03-04 14:00:00,30.6,19.8,30.24,North,0,5.4,6.3,64,0.00,,,0.00,WUHU216HW,2013-03-04 19:00:00,
2013-03-04 14:05:00,31.1,20.0,30.24,North,0,4.3,6.3,63,0.00,,,0.00,WUHU216HW,2013-03-04 19:05:00,
2013-03-04 14:10:00,31.3,20.2,30.24,North,0,4.5,8.3,63,0.00,,,0.00,WUHU216HW,2013-03-04 19:10:00,
2013-03-04 14:15:00,31.5,20.0,30.24,North,0,3.4,8.3,62,0.00,,,0.00,WUHU216HW,2013-03-04 19:15:00,
2013-03-04 14:20:00,31.5,19.3,30.23,NNE,23,4.0,6.7,60,0.00,,,0.00,WUHU216HW,2013-03-04 19:20:00,
2013-03-04 14:25:00,31.0,18.3,30.23,NNE,23,8.5,8.5,59,0.00,,,0.00,WUHU216HW,2013-03-04 19:25:00,
2013-03-04 14:30:00,30.6,18.7,30.22,North,0,4.7,8.5,61,0.00,,,0.00,WUHU216HW,2013-03-04 19:30:00,
2013-03-04 14:35:00,31.3,19.8,30.23,NNW,338,1.8,6.0,62,0.00,,,0.00,WUHU216HW,2013-03-04 19:35:00,
2013-03-04 14:40:00,31.5,19.3,30.22,North,0,4.3,6.0,60,0.00,,,0.00,WUHU216HW,2013-03-04 19:40:00,
2013-03-04 14:45:00,32.0,20.2,30.22,North,0,1.6,6.0,61,0.00,,,0.00,WUHU216HW,2013-03-04 19:45:00,
2013-03-04 14:50:00,31.7,18.2,30.22,ENE,68,4.9,6.3,57,0.00,,,0.00,WUHU216HW,2013-03-04 19:50:00,
2013-03-04 14:55:00,31.7,19.4,30.22,North,0,3.4,6.3,60,0.00,,,0.00,WUHU216HW,2013-03-04 19:55:00,
2013-03-04 15:00:00,32.0,18.9,30.22,NE,45,3.4,4.9,58,0.00,,,0.00,WUHU216HW,2013-03-04 20:00:00,
2013-03-04 15:05:00,32.4,20.2,30.22,SE,135,4.5,5.1,60,0.00,,,0.00,WUHU216HW,2013-03-04 20:05:00,
2013-03-04 15:10:00,32.8,21.2,30.22,East,90,4.5,5.4,62,0.00,,,0.00,WUHU216HW,2013-03-04 20:10:00,
2013-03-04 15:15:00,33.3,20.5,30.22,NE,45,4.7,5.4,59,0.00,,,0.00,WUHU216HW,2013-03-04 20:15:00,
2013-03-04 15:20:00,32.9,20.6,30.22,SE,135,1.1,4.7,60,0.00,,,0.00,WUHU216HW,2013-03-04 20:20:00,
2013-03-04 15:25:00,33.3,21.3,30.22,ESE,113,3.4,4.7,61,0.00,,,0.00,WUHU216HW,2013-03-04 20:25:00,
2013-03-04 15:30:00,33.1,19.9,30.21,East,90,2.7,4.7,58,0.00,,,0.00,WUHU216HW,2013-03-04 20:30:00,
2013-03-04 15:35:00,32.8,19.6,30.21,ENE,68,2.5,5.4,58,0.00,,,0.00,WUHU216HW,2013-03-04 20:35:00,
2013-03-04 15:40:00,32.8,20.0,30.21,North,0,3.6,5.4,59,0.00,,,0.00,WUHU216HW,2013-03-04 20:40:00,
2013-03-04 15:45:00,32.6,19.0,30.21,NNE,23,4.0,4.9,57,0.00,,,0.00,WUHU216HW,2013-03-04 20:45:00,
2013-03-04 15:50:00,32.4,18.8,30.21,NNE,23,3.4,5.8,57,0.00,,,0.00,WUHU216HW,2013-03-04 20:50:00,
2013-03-04 15:55:00,32.8,19.6,30.21,NE,45,4.0,5.8,58,0.00,,,0.00,WUHU216HW,2013-03-04 20:55:00,
2013-03-04 16:00:00,32.8,19.6,30.21,East,90,3.1,5.4,58,0.00,,,0.00,WUHU216HW,2013-03-04 21:00:00,
2013-03-04 16:05:00,33.5,20.7,30.21,East,90,5.8,8.5,59,0.00,,,0.00,WUHU216HW,2013-03-04 21:05:00,
2013-03-04 16:10:00,33.8,21.4,30.21,SE,135,4.7,8.5,60,0.00,,,0.00,WUHU216HW,2013-03-04 21:10:00,
2013-03-04 16:15:00,34.2,22.1,30.21,ESE,113,6.3,7.6,61,0.00,,,0.00,WUHU216HW,2013-03-04 21:15:00,
2013-03-04 16:20:00,34.6,22.5,30.21,SE,135,4.7,6.7,61,0.00,,,0.00,WUHU216HW,2013-03-04 21:20:00,
2013-03-04 16:25:00,34.6,22.5,30.21,ESE,113,6.3,6.5,61,0.00,,,0.00,WUHU216HW,2013-03-04 21:25:00,
2013-03-04 16:30:00,34.2,22.1,30.21,SE,135,5.4,6.5,61,0.00,,,0.00,WUHU216HW,2013-03-04 21:30:00,
2013-03-04 16:35:00,34.6,22.5,30.21,SE,135,4.9,5.4,61,0.00,,,0.00,WUHU216HW,2013-03-04 21:35:00,
2013-03-04 16:40:00,34.9,23.2,30.21,SE,135,2.5,5.4,62,0.00,,,0.00,WUHU216HW,2013-03-04 21:40:00,
2013-03-04 16:45:00,35.3,23.2,30.21,SE,135,5.4,5.4,61,0.00,,,0.00,WUHU216HW,2013-03-04 21:45:00,
2013-03-04 16:50:00,35.3,22.9,30.20,SE,135,4.0,5.6,60,0.00,,,0.00,WUHU216HW,2013-03-04 21:50:00,
2013-03-04 16:55:00,35.6,23.6,30.20,SE,135,4.5,5.6,61,0.00,,,0.00,WUHU216HW,2013-03-04 21:55:00,
2013-03-04 17:00:00,35.6,23.6,30.20,SE,135,4.0,5.1,61,0.00,,,0.00,WUHU216HW,2013-03-04 22:00:00,
2013-03-04 17:05:00,35.6,23.6,30.20,SSE,158,4.0,5.4,61,0.00,,,0.00,WUHU216HW,2013-03-04 22:05:00,
2013-03-04 17:10:00,35.6,23.2,30.20,SE,135,4.5,5.4,60,0.00,,,0.00,WUHU216HW,2013-03-04 22:10:00,
2013-03-04 17:15:00,35.6,23.2,30.21,ENE,68,3.4,4.7,60,0.00,,,0.00,WUHU216HW,2013-03-04 22:15:00,
2013-03-04 17:20:00,34.9,21.6,30.21,NE,45,2.5,5.4,58,0.00,,,0.00,WUHU216HW,2013-03-04 22:20:00,
2013-03-04 17:25:00,34.7,21.4,30.21,East,90,6.3,6.3,58,0.00,,,0.00,WUHU216HW,2013-03-04 22:25:00,
2013-03-04 17:30:00,34.4,20.7,30.21,East,90,4.7,6.7,57,0.00,,,0.00,WUHU216HW,2013-03-04 22:30:00,
2013-03-04 17:35:00,34.6,21.2,30.21,SE,135,3.8,6.7,58,0.00,,,0.00,WUHU216HW,2013-03-04 22:35:00,
2013-03-04 17:40:00,34.6,21.2,30.21,SSE,158,4.0,6.7,58,0.00,,,0.00,WUHU216HW,2013-03-04 22:40:00,
2013-03-04 17:45:00,34.2,21.3,30.22,SE,135,3.4,6.7,59,0.00,,,0.00,WUHU216HW,2013-03-04 22:45:00,
2013-03-04 17:50:00,34.2,20.9,30.22,ESE,113,4.3,6.7,58,0.00,,,0.00,WUHU216HW,2013-03-04 22:50:00,
2013-03-04 17:55:00,33.7,20.8,30.22,ESE,113,4.5,5.4,59,0.00,,,0.00,WUHU216HW,2013-03-04 22:55:00,
2013-03-04 18:00:00,33.5,20.3,30.22,ESE,113,4.7,5.8,58,0.00,,,0.00,WUHU216HW,2013-03-04 23:00:00,
2013-03-04 18:05:00,33.1,20.3,30.22,ESE,113,5.6,6.7,59,0.00,,,0.00,WUHU216HW,2013-03-04 23:05:00,
2013-03-04 18:10:00,32.8,20.0,30.21,ESE,113,4.9,6.9,59,0.00,,,0.00,WUHU216HW,2013-03-04 23:10:00,
2013-03-04 18:15:00,32.2,20.0,30.21,ESE,113,4.7,6.9,60,0.00,,,0.00,WUHU216HW,2013-03-04 23:15:00,
2013-03-04 18:20:00,31.7,19.4,30.21,SE,135,5.6,6.0,60,0.00,,,0.00,WUHU216HW,2013-03-04 23:20:00,
2013-03-04 18:25:00,31.3,19.4,30.21,East,90,4.5,6.0,61,0.00,,,0.00,WUHU216HW,2013-03-04 23:25:00,
2013-03-04 18:30:00,31.0,19.1,30.21,East,90,4.5,5.6,61,0.00,,,0.00,WUHU216HW,2013-03-04 23:30:00,
2013-03-04 18:35:00,30.6,18.7,30.21,East,90,6.9,6.9,61,0.00,,,0.00,WUHU216HW,2013-03-04 23:35:00,
2013-03-04 18:40:00,30.2,18.0,30.21,East,90,5.4,6.9,60,0.00,,,0.00,WUHU216HW,2013-03-04 23:40:00,
2013-03-04 18:45:00,30.1,18.2,30.20,ESE,113,6.9,6.9,61,0.00,,,0.00,WUHU216HW,2013-03-04 23:45:00,
2013-03-04 18:50:00,29.7,17.9,30.20,East,90,5.4,6.9,61,0.00,,,0.00,WUHU216HW,2013-03-04 23:50:00,
2013-03-04 18:55:00,29.5,17.7,30.20,ENE,68,4.5,6.0,61,0.00,,,0.00,WUHU216HW,2013-03-04 23:55:00,
2013-03-04 19:00:00,29.3,17.9,30.20,ENE,68,5.4,6.0,62,0.00,,,0.00,WUHU216HW,2013-03-05 00:00:00,
2013-03-04 19:05:00,29.2,17.4,30.20,East,90,6.0,6.3,61,0.00,,,0.00,WUHU216HW,2013-03-05 00:05:00,
2013-03-04 19:10:00,29.2,17.0,30.20,East,90,4.7,7.2,60,0.00,,,0.00,WUHU216HW,2013-03-05 00:10:00,
2013-03-04 19:15:00,29.0,16.8,30.20,ENE,68,6.0,7.2,60,0.00,,,0.00,WUHU216HW,2013-03-05 00:15:00,
2013-03-04 19:20:00,28.8,17.1,30.20,ESE,113,4.7,6.0,61,0.00,,,0.00,WUHU216HW,2013-03-05 00:20:00,
2013-03-04 19:25:00,28.4,16.7,30.20,East,90,4.7,6.0,61,0.00,,,0.00,WUHU216HW,2013-03-05 00:25:00,
2013-03-04 19:30:00,28.4,16.7,30.20,ENE,68,4.5,6.0,61,0.00,,,0.00,WUHU216HW,2013-03-05 00:30:00,
2013-03-04 19:35:00,28.3,16.6,30.20,East,90,3.8,5.8,61,0.00,,,0.00,WUHU216HW,2013-03-05 00:35:00,
2013-03-04 19:40:00,28.1,15.6,30.20,ENE,68,5.1,5.8,59,0.00,,,0.00,WUHU216HW,2013-03-05 00:40:00,
2013-03-04 19:45:00,28.1,16.0,30.20,East,90,5.1,5.4,60,0.00,,,0.00,WUHU216HW,2013-03-05 00:45:00,
2013-03-04 19:50:00,27.9,16.2,30.20,ESE,113,5.1,6.3,61,0.00,,,0.00,WUHU216HW,2013-03-05 00:50:00,
2013-03-04 19:55:00,27.9,15.8,30.21,ENE,68,4.5,7.6,60,0.00,,,0.00,WUHU216HW,2013-03-05 00:55:00,
2013-03-04 20:00:00,27.9,16.2,30.21,ENE,68,4.7,7.6,61,0.00,,,0.00,WUHU216HW,2013-03-05 01:00:00,
2013-03-04 20:05:00,27.7,16.0,30.21,ENE,68,5.6,6.7,61,0.00,,,0.00,WUHU216HW,2013-03-05 01:05:00,
2013-03-04 20:11:00,27.7,16.0,30.21,East,90,4.7,5.8,61,0.00,,,0.00,WUHU216HW,2013-03-05 01:11:00,
2013-03-04 20:16:00,27.7,15.7,30.21,ENE,68,6.5,6.5,60,0.00,,,0.00,WUHU216HW,2013-03-05 01:16:00,
2013-03-04 20:21:00,27.7,16.0,30.21,ENE,68,5.6,6.5,61,0.00,,,0.00,WUHU216HW,2013-03-05 01:21:00,
2013-03-04 20:26:00,27.4,15.7,30.22,East,90,2.7,5.6,61,0.00,,,0.00,WUHU216HW,2013-03-05 01:26:00,
2013-03-04 20:31:00,27.2,15.5,30.22,ESE,113,3.1,5.4,61,0.00,,,0.00,WUHU216HW,2013-03-05 01:31:00,
2013-03-04 20:36:00,26.8,15.5,30.21,ESE,113,2.5,4.7,62,0.00,,,0.00,WUHU216HW,2013-03-05 01:36:00,
2013-03-04 20:41:00,26.3,14.9,30.21,ESE,113,3.1,3.6,62,0.00,,,0.00,WUHU216HW,2013-03-05 01:41:00,
2013-03-04 20:46:00,26.3,14.9,30.21,ESE,113,2.7,4.0,62,0.00,,,0.00,WUHU216HW,2013-03-05 01:46:00,
2013-03-04 20:51:00,26.1,14.8,30.21,East,90,3.1,4.0,62,0.00,,,0.00,WUHU216HW,2013-03-05 01:51:00,
2013-03-04 20:56:00,25.7,14.9,30.22,ESE,113,2.0,3.4,63,0.00,,,0.00,WUHU216HW,2013-03-05 01:56:00,
2013-03-04 21:01:00,25.6,14.7,30.22,ESE,113,1.8,3.1,63,0.00,,,0.00,WUHU216HW,2013-03-05 02:01:00,
2013-03-04 21:06:00,25.4,14.9,30.22,East,90,2.2,2.2,64,0.00,,,0.00,WUHU216HW,2013-03-05 02:06:00,
2013-03-04 21:11:00,25.2,14.7,30.21,East,90,3.1,3.1,64,0.00,,,0.00,WUHU216HW,2013-03-05 02:11:00,
2013-03-04 21:16:00,25.2,15.0,30.22,ESE,113,2.5,3.1,65,0.00,,,0.00,WUHU216HW,2013-03-05 02:16:00,
2013-03-04 21:21:00,25.2,15.0,30.22,East,90,1.8,2.5,65,0.00,,,0.00,WUHU216HW,2013-03-05 02:21:00,
2013-03-04 21:26:00,25.2,15.0,30.22,East,90,2.7,4.0,65,0.00,,,0.00,WUHU216HW,2013-03-05 02:26:00,
2013-03-04 21:31:00,25.4,15.2,30.21,East,90,4.0,4.0,65,0.00,,,0.00,WUHU216HW,2013-03-05 02:31:00,
2013-03-04 21:36:00,25.4,15.6,30.21,ESE,113,2.5,4.0,66,0.00,,,0.00,WUHU216HW,2013-03-05 02:36:00,
2013-03-04 21:41:00,25.6,15.7,30.21,East,90,3.6,4.3,66,0.00,,,0.00,WUHU216HW,2013-03-05 02:41:00,
2013-03-04 21:46:00,25.6,15.7,30.21,East,90,2.9,4.3,66,0.00,,,0.00,WUHU216HW,2013-03-05 02:46:00,
2013-03-04 21:51:00,25.7,16.2,30.22,ENE,68,3.8,4.0,67,0.00,,,0.00,WUHU216HW,2013-03-05 02:51:00,
2013-03-04 21:56:00,25.9,16.4,30.22,ENE,68,3.4,4.0,67,0.00,,,0.00,WUHU216HW,2013-03-05 02:56:00,
2013-03-04 22:01:00,25.9,16.0,30.22,East,90,3.4,3.8,66,0.00,,,0.00,WUHU216HW,2013-03-05 03:01:00,
2013-03-04 22:06:00,25.7,15.8,30.22,East,90,2.9,3.8,66,0.00,,,0.00,WUHU216HW,2013-03-05 03:06:00,
2013-03-04 22:11:00,25.7,15.8,30.22,East,90,2.7,3.4,66,0.00,,,0.00,WUHU216HW,2013-03-05 03:11:00,
2013-03-04 22:16:00,25.6,15.7,30.23,East,90,3.4,3.4,66,0.00,,,0.00,WUHU216HW,2013-03-05 03:16:00,
2013-03-04 22:21:00,25.6,15.7,30.22,East,90,3.4,3.4,66,0.00,,,0.00,WUHU216HW,2013-03-05 03:21:00,
2013-03-04 22:26:00,25.4,15.6,30.22,East,90,3.6,3.6,66,0.00,,,0.00,WUHU216HW,2013-03-05 03:26:00,
2013-03-04 22:31:00,25.2,15.7,30.23,East,90,3.1,4.0,67,0.00,,,0.00,WUHU216HW,2013-03-05 03:31:00,
2013-03-04 22:36:00,25.4,15.8,30.23,ESE,113,2.9,4.0,67,0.00,,,0.00,WUHU216HW,2013-03-05 03:36:00,
2013-03-04 22:41:00,25.2,15.7,30.22,East,90,2.5,3.6,67,0.00,,,0.00,WUHU216HW,2013-03-05 03:41:00,
2013-03-04 22:46:00,24.8,15.4,30.23,East,90,4.0,4.0,67,0.00,,,0.00,WUHU216HW,2013-03-05 03:46:00,
2013-03-04 22:51:00,24.8,15.4,30.23,ENE,68,2.7,4.3,67,0.00,,,0.00,WUHU216HW,2013-03-05 03:51:00,
2013-03-04 22:56:00,24.8,15.4,30.23,ENE,68,2.5,4.3,67,0.00,,,0.00,WUHU216HW,2013-03-05 03:56:00,
2013-03-04 23:01:00,24.7,15.2,30.23,East,90,2.7,3.6,67,0.00,,,0.00,WUHU216HW,2013-03-05 04:01:00,
2013-03-04 23:06:00,24.5,15.0,30.24,East,90,3.1,3.1,67,0.00,,,0.00,WUHU216HW,2013-03-05 04:06:00,
2013-03-04 23:11:00,24.1,14.7,30.24,East,90,2.5,3.1,67,0.00,,,0.00,WUHU216HW,2013-03-05 04:11:00,
2013-03-04 23:16:00,24.1,15.0,30.24,East,90,1.8,2.5,68,0.00,,,0.00,WUHU216HW,2013-03-05 04:16:00,
2013-03-04 23:21:00,24.1,15.0,30.24,East,90,2.0,2.5,68,0.00,,,0.00,WUHU216HW,2013-03-05 04:21:00,
2013-03-04 23:26:00,23.9,14.9,30.24,East,90,2.2,2.5,68,0.00,,,0.00,WUHU216HW,2013-03-05 04:26:00,
2013-03-04 23:31:00,23.8,14.7,30.24,ESE,113,1.8,2.2,68,0.00,,,0.00,WUHU216HW,2013-03-05 04:31:00,
2013-03-04 23:36:00,23.6,14.6,30.24,East,90,2.7,2.7,68,0.00,,,0.00,WUHU216HW,2013-03-05 04:36:00,
2013-03-04 23:41:00,23.8,14.7,30.24,ESE,113,2.5,2.7,68,0.00,,,0.00,WUHU216HW,2013-03-05 04:41:00,
2013-03-04 23:46:00,23.8,14.7,30.24,East,90,2.5,3.4,68,0.00,,,0.00,WUHU216HW,2013-03-05 04:46:00,
2013-03-04 23:51:00,23.8,14.7,30.24,East,90,2.7,3.4,68,0.00,,,0.00,WUHU216HW,2013-03-05 04:51:00,
2013-03-04 23:56:00,23.9,14.9,30.24,East,90,3.8,3.8,68,0.00,,,0.00,WUHU216HW,2013-03-05 04:56:00,